createdAt,value
2024-03-08T00:01:08.048Z,4.31
2024-03-08T00:03:38.005Z,4.00
2024-03-08T00:06:08.788Z,3.91
2024-03-08T00:08:38.834Z,3.96
2024-03-08T00:11:11.737Z,3.97
2024-03-08T00:13:41.793Z,3.97
2024-03-08T00:16:11.841Z,3.99
2024-03-08T00:18:41.853Z,4.03
2024-03-08T00:21:13.290Z,4.03
2024-03-08T00:23:43.390Z,3.96
2024-03-08T00:26:15.990Z,3.98
2024-03-08T00:28:45.930Z,4.02
2024-03-08T00:31:17.141Z,4.01
2024-03-08T00:33:47.254Z,3.99
2024-03-08T00:36:17.308Z,3.88
2024-03-08T00:38:47.242Z,3.79
2024-03-08T00:41:19.812Z,3.32
2024-03-08T00:43:50.530Z,3.33
2024-03-08T00:46:20.497Z,3.39
2024-03-08T00:48:50.551Z,3.47
2024-03-08T00:51:20.608Z,3.66
2024-03-08T00:53:50.630Z,3.70
2024-03-08T00:56:23.186Z,3.47
2024-03-08T00:58:53.136Z,3.39
2024-03-08T01:01:23.316Z,3.38
2024-03-08T01:03:53.461Z,3.45
2024-03-08T01:06:23.709Z,3.65
2024-03-08T01:08:54.203Z,3.57
2024-03-08T01:11:26.999Z,3.48
2024-03-08T01:13:57.101Z,3.35
2024-03-08T01:16:27.044Z,3.39
2024-03-08T01:18:57.465Z,3.40
2024-03-08T01:21:27.483Z,3.53
2024-03-08T01:23:57.455Z,3.39
2024-03-08T01:26:30.160Z,3.38
2024-03-08T01:29:00.452Z,3.41
2024-03-08T01:31:30.439Z,3.30
2024-03-08T01:34:00.681Z,3.36
2024-03-08T01:36:30.732Z,3.39
2024-03-08T01:39:00.845Z,3.42
2024-03-08T01:41:33.642Z,3.38
2024-03-08T01:44:04.276Z,3.35
2024-03-08T01:46:35.449Z,3.39
2024-03-08T01:49:06.409Z,3.45
2024-03-08T01:51:36.874Z,3.26
2024-03-08T01:54:08.457Z,2.99
2024-03-08T01:56:42.765Z,3.08
2024-03-08T01:59:13.711Z,3.20
2024-03-08T02:01:43.734Z,3.12
2024-03-08T02:04:13.723Z,2.95
2024-03-08T02:06:43.722Z,3.16
2024-03-08T02:09:13.774Z,3.25
2024-03-08T02:11:47.194Z,3.26
2024-03-08T02:14:17.195Z,3.26
2024-03-08T02:16:47.121Z,3.41
2024-03-08T02:19:17.068Z,3.24
2024-03-08T02:21:50.605Z,3.30
2024-03-08T02:24:20.810Z,3.23
2024-03-08T02:26:50.871Z,3.28
2024-03-08T02:29:21.907Z,3.31
2024-03-08T02:31:51.862Z,3.38
2024-03-08T02:34:21.897Z,3.39
2024-03-08T02:36:54.470Z,3.26
2024-03-08T02:39:24.500Z,3.18
2024-03-08T02:41:54.464Z,3.28
2024-03-08T02:44:25.398Z,3.37
2024-03-08T02:46:56.457Z,3.28
2024-03-08T02:49:26.501Z,3.13
2024-03-08T02:52:00.038Z,3.19
2024-03-08T02:54:30.030Z,3.14
2024-03-08T02:57:00.006Z,3.16
2024-03-08T02:59:30.425Z,3.22
2024-03-08T03:02:00.483Z,3.21
2024-03-08T03:04:30.434Z,3.10
2024-03-08T03:07:03.080Z,3.03
2024-03-08T03:09:34.193Z,3.04
2024-03-08T03:12:04.232Z,2.97
2024-03-08T03:14:35.136Z,2.97
2024-03-08T03:17:05.871Z,2.97
2024-03-08T03:19:36.918Z,3.04
2024-03-08T03:22:11.011Z,3.23
2024-03-08T03:24:43.381Z,3.33
2024-03-08T03:27:14.871Z,3.33
2024-03-08T03:29:47.074Z,3.33
2024-03-08T03:32:19.757Z,3.26
2024-03-08T03:34:49.723Z,3.05
2024-03-08T03:37:22.432Z,2.85
2024-03-08T03:39:54.438Z,2.95
2024-03-08T03:42:25.516Z,3.03
2024-03-08T03:44:55.623Z,3.01
2024-03-08T03:47:25.745Z,2.86
2024-03-08T03:49:55.718Z,3.06
2024-03-08T03:52:28.305Z,2.89
2024-03-08T03:54:58.285Z,2.98
2024-03-08T03:57:28.227Z,3.02
2024-03-08T03:59:58.522Z,2.90
2024-03-08T04:02:28.874Z,2.96
2024-03-08T04:04:59.423Z,2.86
2024-03-08T04:07:31.958Z,2.88
2024-03-08T04:10:01.899Z,2.89
2024-03-08T04:12:33.562Z,2.74
2024-03-08T04:15:03.836Z,2.80
2024-03-08T04:17:38.485Z,2.83
2024-03-08T04:20:12.131Z,2.66
2024-03-08T04:22:45.938Z,2.79
2024-03-08T04:25:15.975Z,2.83
2024-03-08T04:27:46.250Z,2.96
2024-03-08T04:30:17.012Z,2.90
2024-03-08T04:32:47.106Z,2.76
2024-03-08T04:35:17.382Z,2.85
2024-03-08T04:37:50.142Z,2.70
2024-03-08T04:40:20.383Z,2.67
2024-03-08T04:42:52.392Z,2.64
2024-03-08T04:45:23.043Z,2.61
2024-03-08T04:47:53.990Z,2.64
2024-03-08T04:50:24.829Z,2.72
2024-03-08T04:52:57.451Z,2.64
2024-03-08T04:55:27.431Z,2.66
2024-03-08T04:57:57.470Z,2.62
2024-03-08T05:00:27.527Z,2.60
2024-03-08T05:02:57.591Z,2.58
2024-03-08T05:05:29.802Z,2.62
2024-03-08T05:08:02.905Z,2.74
2024-03-08T05:10:32.848Z,2.81
2024-03-08T05:13:02.965Z,2.67
2024-03-08T05:15:36.193Z,2.74
2024-03-08T05:18:07.149Z,2.82
2024-03-08T05:20:38.471Z,2.83
2024-03-08T05:23:11.126Z,2.69
2024-03-08T05:25:41.079Z,2.65
2024-03-08T05:28:11.083Z,2.50
2024-03-08T05:30:42.361Z,2.30
2024-03-08T05:33:15.942Z,2.11
2024-03-08T05:35:45.964Z,2.05
2024-03-08T05:38:18.499Z,2.00
2024-03-08T05:40:48.474Z,1.94
2024-03-08T05:43:20.815Z,2.05
2024-03-08T05:45:51.265Z,2.08
2024-03-08T05:48:21.892Z,2.10
2024-03-08T05:50:51.982Z,2.15
2024-03-08T05:53:24.664Z,2.17
2024-03-08T05:55:55.475Z,2.28
2024-03-08T05:58:25.609Z,2.40
2024-03-08T06:00:55.796Z,2.59
2024-03-08T06:03:26.680Z,2.59
2024-03-08T06:05:57.852Z,2.73
2024-03-08T06:08:32.064Z,2.80
2024-03-08T06:11:04.090Z,2.73
2024-03-08T06:13:35.179Z,2.81
2024-03-08T06:16:05.897Z,2.92
2024-03-08T06:18:37.900Z,2.94
2024-03-08T06:21:10.397Z,2.97
2024-03-08T06:23:43.197Z,2.92
2024-03-08T06:26:13.168Z,2.89
2024-03-08T06:28:43.108Z,2.81
2024-03-08T06:31:13.422Z,2.81
2024-03-08T06:33:43.494Z,2.95
2024-03-08T06:36:13.664Z,2.86
2024-03-08T06:38:47.505Z,2.98
2024-03-08T06:41:18.333Z,2.92
2024-03-08T06:43:49.984Z,2.97
2024-03-08T06:46:22.342Z,3.22
2024-03-08T06:48:53.284Z,3.09
2024-03-08T06:51:25.403Z,3.01
2024-03-08T06:53:58.033Z,2.85
2024-03-08T06:56:28.004Z,2.68
2024-03-08T06:58:58.080Z,2.62
2024-03-08T07:01:28.908Z,2.62
2024-03-08T07:03:58.892Z,2.56
2024-03-08T07:06:29.945Z,2.68
2024-03-08T07:09:02.578Z,2.91
2024-03-08T07:11:32.732Z,2.92
2024-03-08T07:14:06.839Z,2.88
2024-03-08T07:16:37.047Z,2.96
2024-03-08T07:19:07.140Z,2.86
2024-03-08T07:21:37.315Z,2.66
2024-03-08T07:24:26.045Z,2.81
2024-03-08T07:26:56.773Z,2.81
2024-03-08T07:29:24.439Z,3.06
2024-03-08T07:32:02.930Z,3.22
2024-03-08T07:34:34.979Z,3.21
2024-03-08T07:37:07.905Z,3.48
2024-03-08T07:39:41.370Z,3.67
2024-03-08T07:42:12.191Z,3.64
2024-03-08T07:44:42.635Z,3.81
2024-03-08T07:47:13.451Z,4.08
2024-03-08T07:49:44.973Z,3.96
2024-03-08T07:52:16.906Z,4.02
2024-03-08T07:54:50.534Z,3.78
2024-03-08T07:57:21.591Z,3.74
2024-03-08T07:59:51.865Z,3.96
2024-03-08T08:02:21.871Z,4.25
2024-03-08T08:04:52.140Z,4.41
2024-03-08T08:07:22.498Z,4.24
2024-03-08T08:09:57.017Z,4.42
2024-03-08T08:12:27.046Z,4.59
2024-03-08T08:14:57.868Z,4.70
2024-03-08T08:17:27.844Z,4.78
2024-03-08T08:19:57.906Z,5.09
2024-03-08T08:22:28.776Z,5.31
2024-03-08T08:25:01.532Z,5.28
2024-03-08T08:27:31.512Z,5.36
2024-03-08T08:30:01.659Z,5.55
2024-03-08T08:32:31.684Z,5.35
2024-03-08T08:35:01.642Z,5.31
2024-03-08T08:37:32.562Z,5.44
2024-03-08T08:40:11.268Z,5.69
2024-03-08T08:42:41.558Z,6.04
2024-03-08T08:45:16.856Z,6.07
2024-03-08T08:47:48.474Z,6.31
2024-03-08T08:50:24.554Z,6.29
2024-03-08T08:52:55.443Z,6.75
2024-03-08T08:55:28.698Z,7.59
2024-03-08T08:57:58.751Z,8.74
2024-03-08T09:00:29.322Z,8.86
2024-03-08T09:02:59.879Z,10.23
2024-03-08T09:05:30.449Z,11.41
2024-03-08T09:08:01.568Z,12.78
2024-03-08T09:10:35.320Z,13.14
2024-03-08T09:13:05.788Z,12.94
2024-03-08T09:15:35.801Z,14.28
2024-03-08T09:18:07.330Z,15.82
2024-03-08T09:20:38.180Z,16.53
2024-03-08T09:23:09.670Z,17.72
2024-03-08T09:25:43.326Z,18.26
2024-03-08T09:28:15.277Z,18.72
2024-03-08T09:30:54.030Z,19.82
2024-03-08T09:33:30.247Z,19.96
2024-03-08T09:36:03.977Z,20.52
2024-03-08T09:38:35.594Z,20.29
2024-03-08T09:41:08.155Z,20.76
2024-03-08T09:43:38.272Z,19.67
2024-03-08T09:46:09.642Z,19.56
2024-03-08T09:48:42.827Z,20.35
2024-03-08T09:51:16.616Z,20.15
2024-03-08T09:53:47.709Z,20.07
2024-03-08T09:56:20.950Z,18.87
2024-03-08T09:59:16.108Z,18.42
2024-03-08T10:01:46.180Z,17.86
2024-03-08T10:04:17.912Z,19.32
2024-03-08T10:06:49.017Z,20.52
2024-03-08T10:09:19.146Z,20.95
2024-03-08T10:11:51.898Z,21.02
2024-03-08T10:14:22.833Z,22.07
2024-03-08T10:16:53.863Z,21.96
2024-03-08T10:19:26.639Z,22.86
2024-03-08T10:21:57.992Z,23.33
2024-03-08T10:24:28.466Z,22.84
2024-03-08T10:27:03.370Z,22.69
2024-03-08T10:29:33.330Z,23.13
2024-03-08T10:32:03.883Z,23.02
2024-03-08T10:34:33.962Z,23.40
2024-03-08T10:37:08.191Z,23.59
2024-03-08T10:39:40.898Z,23.21
2024-03-08T10:42:21.115Z,23.59
2024-03-08T10:45:04.401Z,23.82
2024-03-08T10:47:37.932Z,23.77
2024-03-08T10:50:22.106Z,23.86
2024-03-08T10:52:54.523Z,23.83
2024-03-08T10:55:25.666Z,23.50
2024-03-08T10:57:58.347Z,22.79
2024-03-08T11:00:30.187Z,22.34
2024-03-08T11:03:01.534Z,22.40
2024-03-08T11:05:44.703Z,22.18
2024-03-08T11:08:22.837Z,21.13
2024-03-08T11:10:57.382Z,20.80
2024-03-08T11:13:44.805Z,19.95
2024-03-08T11:16:20.399Z,19.71
2024-03-08T11:18:53.018Z,20.32
2024-03-08T11:21:27.494Z,20.70
2024-03-08T11:24:04.312Z,19.99
2024-03-08T11:26:37.018Z,19.23
2024-03-08T11:29:41.230Z,17.85
2024-03-08T11:32:13.443Z,17.78
2024-03-08T11:34:47.305Z,17.80
2024-03-08T11:37:19.686Z,16.93
2024-03-08T11:39:54.199Z,15.82
2024-03-08T11:42:24.405Z,15.86
2024-03-08T11:44:57.798Z,16.18
2024-03-08T11:47:27.794Z,16.36
2024-03-08T11:49:57.835Z,15.86
2024-03-08T11:52:28.602Z,15.73
2024-03-08T11:54:59.724Z,15.78
2024-03-08T11:57:30.896Z,14.48
2024-03-08T12:00:08.093Z,14.24
2024-03-08T12:02:42.644Z,13.45
2024-03-08T12:05:17.803Z,13.04
2024-03-08T12:07:47.880Z,12.50
2024-03-08T12:10:19.558Z,12.56
2024-03-08T12:12:51.333Z,12.61
2024-03-08T12:15:25.348Z,12.73
2024-03-08T12:17:57.797Z,12.94
2024-03-08T12:20:31.119Z,12.54
2024-03-08T12:23:02.350Z,12.41
2024-03-08T12:25:36.873Z,12.84
2024-03-08T12:28:16.256Z,13.21
2024-03-08T12:31:00.036Z,13.47
2024-03-08T12:33:30.119Z,13.64
2024-03-08T12:36:00.288Z,13.83
2024-03-08T12:38:33.104Z,13.79
2024-03-08T12:41:04.296Z,13.43
2024-03-08T12:43:35.475Z,13.39
2024-03-08T12:46:10.081Z,13.42
2024-03-08T12:48:41.939Z,13.29
2024-03-08T12:51:11.996Z,12.95
2024-03-08T12:53:42.111Z,12.82
2024-03-08T12:56:12.244Z,12.83
2024-03-08T12:58:43.924Z,12.87
2024-03-08T13:01:16.673Z,12.33
2024-03-08T13:03:47.716Z,12.29
2024-03-08T13:06:17.617Z,12.41
2024-03-08T13:08:49.177Z,12.54
2024-03-08T13:11:20.697Z,12.71
2024-03-08T13:13:51.394Z,12.94
2024-03-08T13:16:24.344Z,13.19
2024-03-08T13:18:55.029Z,13.30
2024-03-08T13:21:25.868Z,13.32
2024-03-08T13:23:56.424Z,13.24
2024-03-08T13:26:30.327Z,13.13
2024-03-08T13:29:00.314Z,13.23
2024-03-08T13:31:33.033Z,13.34
2024-03-08T13:34:03.065Z,13.07
2024-03-08T13:36:40.621Z,13.26
2024-03-08T13:39:16.723Z,13.52
2024-03-08T13:41:47.021Z,13.77
2024-03-08T13:44:18.511Z,13.94
2024-03-08T13:46:54.304Z,14.14
2024-03-08T13:49:25.673Z,14.25
2024-03-08T13:51:56.237Z,14.37
2024-03-08T13:54:26.223Z,14.19
2024-03-08T13:56:56.283Z,14.27
2024-03-08T13:59:30.462Z,14.19
2024-03-08T14:02:03.523Z,14.24
2024-03-08T14:04:33.548Z,14.25
2024-03-08T14:07:05.636Z,14.34
2024-03-08T14:09:38.574Z,14.25
2024-03-08T14:12:09.994Z,14.29
2024-03-08T14:14:40.329Z,14.42
2024-03-08T14:17:18.236Z,14.53
2024-03-08T14:19:48.348Z,14.55
2024-03-08T14:22:18.434Z,14.58
2024-03-08T14:24:48.590Z,14.59
2024-03-08T14:27:19.862Z,14.65
2024-03-08T14:29:49.876Z,14.61
2024-03-08T14:32:24.389Z,14.59
2024-03-08T14:34:56.458Z,14.60
2024-03-08T14:37:30.703Z,14.41
2024-03-08T14:40:00.782Z,14.27
2024-03-08T14:42:31.371Z,14.32
2024-03-08T14:45:01.529Z,14.39
2024-03-08T14:47:35.742Z,14.47
2024-03-08T14:50:08.445Z,14.44
2024-03-08T14:52:41.298Z,14.35
2024-03-08T14:55:15.554Z,14.24
2024-03-08T14:57:46.979Z,13.77
2024-03-08T15:00:28.076Z,13.72
2024-03-08T15:03:00.895Z,13.62
2024-03-08T15:05:33.712Z,13.66
2024-03-08T15:08:11.890Z,13.76
2024-03-08T15:10:44.509Z,13.70
2024-03-08T15:13:23.219Z,13.70
2024-03-08T15:15:59.133Z,13.76
2024-03-08T15:18:36.136Z,13.61
2024-03-08T15:21:09.102Z,13.41
2024-03-08T15:23:44.672Z,13.27
2024-03-08T15:26:14.805Z,13.03
2024-03-08T15:28:45.670Z,12.94
2024-03-08T15:31:16.097Z,12.81
2024-03-08T15:33:49.820Z,12.81
2024-03-08T15:36:22.452Z,13.10
2024-03-08T15:38:53.405Z,13.28
2024-03-08T15:41:23.600Z,13.31
2024-03-08T15:43:54.003Z,13.05
2024-03-08T15:46:24.597Z,12.80
2024-03-08T15:48:58.309Z,13.00
2024-03-08T15:51:28.490Z,13.26
2024-03-08T15:53:58.533Z,13.12
2024-03-08T15:56:29.262Z,13.01
2024-03-08T15:58:59.577Z,12.54
2024-03-08T16:01:29.988Z,12.59
2024-03-08T16:04:02.753Z,12.56
2024-03-08T16:06:32.689Z,12.77
2024-03-08T16:09:03.031Z,12.96
2024-03-08T16:11:34.519Z,13.62
2024-03-08T16:14:04.667Z,13.74
2024-03-08T16:16:34.853Z,13.63
2024-03-08T16:19:09.034Z,13.29
2024-03-08T16:21:39.201Z,12.82
2024-03-08T16:24:10.596Z,12.64
2024-03-08T16:26:40.540Z,12.45
2024-03-08T16:29:10.580Z,12.41
2024-03-08T16:31:41.083Z,12.34
2024-03-08T16:34:15.078Z,12.18
2024-03-08T16:36:45.040Z,12.02
2024-03-08T16:39:15.016Z,11.84
2024-03-08T16:41:45.127Z,11.84
2024-03-08T16:44:15.427Z,11.84
2024-03-08T16:46:45.592Z,11.59
2024-03-08T16:49:18.753Z,11.46
2024-03-08T16:51:49.218Z,11.43
2024-03-08T16:54:19.543Z,11.32
2024-03-08T16:56:50.529Z,11.24
2024-03-08T16:59:20.512Z,11.01
2024-03-08T17:01:50.951Z,11.05
2024-03-08T17:04:23.562Z,11.03
2024-03-08T17:06:54.906Z,11.03
2024-03-08T17:09:26.515Z,10.94
2024-03-08T17:11:56.573Z,10.87
2024-03-08T17:14:26.594Z,10.90
2024-03-08T17:16:58.693Z,10.89
2024-03-08T17:19:31.300Z,10.92
2024-03-08T17:22:01.750Z,10.85
2024-03-08T17:24:32.724Z,10.78
2024-03-08T17:27:02.701Z,10.83
2024-03-08T17:29:32.671Z,10.81
2024-03-08T17:32:02.843Z,10.76
2024-03-08T17:34:36.891Z,10.70
2024-03-08T17:37:07.599Z,10.63
2024-03-08T17:39:37.838Z,10.65
2024-03-08T17:42:08.373Z,10.68
2024-03-08T17:44:38.915Z,10.65
2024-03-08T17:47:09.000Z,10.59
2024-03-08T17:49:41.979Z,10.51
2024-03-08T17:52:12.130Z,10.38
2024-03-08T17:54:42.100Z,10.27
2024-03-08T17:57:12.339Z,10.20
2024-03-08T17:59:42.335Z,10.16
2024-03-08T18:02:13.729Z,10.10
2024-03-08T18:04:46.456Z,10.03
2024-03-08T18:07:16.666Z,10.11
2024-03-08T18:09:46.889Z,10.09
2024-03-08T18:12:16.892Z,10.12
2024-03-08T18:14:46.891Z,10.14
2024-03-08T18:17:17.414Z,10.08
2024-03-08T18:19:51.845Z,10.02
2024-03-08T18:22:21.921Z,10.01
2024-03-08T18:24:53.076Z,9.98
2024-03-08T18:27:25.112Z,9.94
2024-03-08T18:29:56.422Z,9.87
2024-03-08T18:32:26.509Z,9.91
2024-03-08T18:34:59.257Z,9.93
2024-03-08T18:37:29.431Z,9.94
2024-03-08T18:40:00.422Z,9.91
2024-03-08T18:42:31.316Z,9.91
2024-03-08T18:45:01.302Z,9.85
2024-03-08T18:47:31.322Z,9.78
2024-03-08T18:50:04.763Z,9.63
2024-03-08T18:52:34.790Z,9.48
2024-03-08T18:55:10.784Z,9.38
2024-03-08T18:57:45.084Z,9.25
2024-03-08T19:00:22.493Z,9.27
2024-03-08T19:02:54.254Z,9.33
2024-03-08T19:05:28.222Z,9.28
2024-03-08T19:07:59.681Z,9.21
2024-03-08T19:10:31.780Z,9.20
2024-03-08T19:13:02.875Z,9.18
2024-03-08T19:15:35.321Z,9.12
2024-03-08T19:18:09.510Z,9.02
2024-03-08T19:20:42.455Z,9.00
2024-03-08T19:23:14.702Z,8.86
2024-03-08T19:25:46.070Z,8.69
2024-03-08T19:28:17.799Z,8.65
2024-03-08T19:30:50.898Z,8.59
2024-03-08T19:33:22.392Z,8.60
2024-03-08T19:35:55.080Z,8.54
2024-03-08T19:38:25.039Z,8.63
2024-03-08T19:40:55.140Z,8.68
2024-03-08T19:43:28.530Z,8.67
2024-03-08T19:45:59.467Z,8.63
2024-03-08T19:48:29.771Z,8.64
2024-03-08T19:51:06.682Z,8.63
2024-03-08T19:53:36.847Z,8.64
2024-03-08T19:56:07.669Z,8.42
2024-03-08T19:58:38.869Z,8.30
2024-03-08T20:01:10.956Z,8.35
2024-03-08T20:03:41.014Z,8.40
2024-03-08T20:06:13.817Z,8.32
2024-03-08T20:08:43.721Z,8.34
2024-03-08T20:11:14.598Z,8.45
2024-03-08T20:13:44.973Z,8.42
2024-03-08T20:16:14.987Z,8.31
2024-03-08T20:18:45.339Z,8.31
2024-03-08T20:21:17.933Z,8.33
2024-03-08T20:23:49.151Z,8.20
2024-03-08T20:26:22.967Z,8.19
2024-03-08T20:28:53.068Z,8.15
2024-03-08T20:31:23.153Z,8.17
2024-03-08T20:33:53.393Z,8.23
2024-03-08T20:36:27.377Z,8.24
2024-03-08T20:38:58.964Z,8.10
2024-03-08T20:41:28.994Z,8.02
2024-03-08T20:43:59.458Z,7.93
2024-03-08T20:46:30.744Z,7.84
2024-03-08T20:49:02.073Z,7.72
2024-03-08T20:51:34.602Z,7.85
2024-03-08T20:54:06.389Z,7.96
2024-03-08T20:56:38.789Z,7.93
2024-03-08T20:59:11.443Z,7.84
2024-03-08T21:01:42.366Z,7.88
2024-03-08T21:04:14.011Z,7.91
2024-03-08T21:06:49.997Z,7.88
2024-03-08T21:09:19.954Z,7.75
2024-03-08T21:11:50.266Z,7.68
2024-03-08T21:14:20.328Z,7.64
2024-03-08T21:16:50.330Z,7.70
2024-03-08T21:19:20.936Z,7.68
2024-03-08T21:21:55.409Z,7.57
2024-03-08T21:24:25.404Z,7.48
2024-03-08T21:26:56.509Z,7.47
2024-03-08T21:29:26.620Z,7.31
2024-03-08T21:31:57.048Z,7.32
2024-03-08T21:34:27.178Z,7.25
2024-03-08T21:37:01.810Z,7.27
2024-03-08T21:39:32.146Z,7.22
2024-03-08T21:42:02.237Z,7.20
2024-03-08T21:44:32.617Z,7.19
2024-03-08T21:47:05.049Z,7.21
2024-03-08T21:49:35.191Z,7.08
2024-03-08T21:52:08.409Z,6.93
2024-03-08T21:54:39.117Z,6.82
2024-03-08T21:57:09.367Z,6.90
2024-03-08T21:59:41.361Z,6.88
2024-03-08T22:02:11.943Z,6.93
2024-03-08T22:04:42.301Z,6.92
2024-03-08T22:07:14.936Z,6.94
2024-03-08T22:09:44.974Z,6.93
2024-03-08T22:12:14.969Z,6.76
2024-03-08T22:14:45.364Z,6.77
2024-03-08T22:17:18.965Z,6.85
2024-03-08T22:19:50.452Z,6.83
2024-03-08T22:22:23.986Z,6.83
2024-03-08T22:24:57.678Z,6.83
2024-03-08T22:27:27.798Z,6.89
2024-03-08T22:29:58.337Z,6.81
2024-03-08T22:32:28.740Z,6.83
2024-03-08T22:34:58.760Z,6.77
2024-03-08T22:37:31.466Z,6.73
2024-03-08T22:40:02.601Z,6.67
2024-03-08T22:42:32.817Z,6.74
2024-03-08T22:45:04.605Z,6.74
2024-03-08T22:47:35.122Z,6.78
2024-03-08T22:50:06.085Z,6.80
2024-03-08T22:52:41.208Z,6.88
2024-03-08T22:55:13.119Z,6.87
2024-03-08T22:57:44.352Z,6.86
2024-03-08T23:00:35.755Z,6.78
2024-03-08T23:03:09.234Z,6.90
2024-03-08T23:05:39.202Z,6.84
2024-03-08T23:08:12.336Z,6.82
2024-03-08T23:10:43.327Z,6.84
2024-03-08T23:13:13.980Z,6.86
2024-03-08T23:15:44.934Z,6.84
2024-03-08T23:18:15.471Z,6.92
2024-03-08T23:20:46.171Z,6.96
2024-03-08T23:23:23.096Z,7.03
2024-03-08T23:25:53.203Z,7.05
2024-03-08T23:28:23.340Z,7.09
2024-03-08T23:30:53.809Z,7.14
2024-03-08T23:33:23.757Z,7.06
2024-03-08T23:35:55.600Z,7.10
2024-03-08T23:38:28.118Z,7.09
2024-03-08T23:40:58.108Z,7.13
2024-03-08T23:43:28.078Z,7.15
2024-03-08T23:45:58.099Z,7.13
2024-03-08T23:48:28.202Z,7.13
2024-03-08T23:50:58.151Z,7.15
2024-03-08T23:53:31.731Z,7.21
2024-03-08T23:56:01.744Z,7.29
2024-03-08T23:58:31.843Z,7.29
